Time;durP1;ratioP1;P1;durP2;ratioP2;P2;SDS_P1;SDS_P2;PMS_P1;PMS_P2;Temp;Humidity;BMP_temperature;BMP_pressure;BME280_temperature;BME280_humidity;BME280_pressure;Samples;Min_cycle;Max_cycle;Signal;HPM_P1;HPM_P2
2021/03/06 00:02:18;;;;;;;4.30;1.93;;;;;;;-1.22;53.20;102409.53;5072634;28;20195;-67
2021/03/06 00:04:44;;;;;;;5.30;2.07;;;;;;;-1.27;53.85;102405.94;5071547;28;20171;-68
2021/03/06 00:07:09;;;;;;;2.57;1.57;;;;;;;-1.28;53.29;102412.94;5072829;28;20221;-68
2021/03/06 00:09:36;;;;;;;3.70;2.20;;;;;;;-1.29;53.81;102408.53;5072547;28;20168;-68
2021/03/06 00:12:02;;;;;;;2.17;1.43;;;;;;;-1.28;53.93;102417.28;5071311;28;20299;-68
2021/03/06 00:14:27;;;;;;;3.73;1.60;;;;;;;-1.27;53.81;102419.94;5072550;28;20254;-69
2021/03/06 00:16:52;;;;;;;3.63;1.60;;;;;;;-1.29;53.82;102411.16;5071582;28;20198;-68
2021/03/06 00:19:17;;;;;;;2.57;1.43;;;;;;;-1.31;53.94;102410.25;5072557;28;20177;-68
2021/03/06 00:21:43;;;;;;;2.07;1.30;;;;;;;-1.30;53.96;102414.63;5070979;28;20198;-68
2021/03/06 00:24:08;;;;;;;4.67;1.90;;;;;;;-1.26;54.00;102410.34;5072895;28;20170;-68
2021/03/06 00:26:34;;;;;;;2.00;1.10;;;;;;;-1.24;54.01;102402.50;5076091;28;20338;-68
2021/03/06 00:28:59;;;;;;;2.07;1.60;;;;;;;-1.23;54.55;102404.28;5074829;28;20651;-68
2021/03/06 00:31:24;;;;;;;2.93;1.77;;;;;;;-1.24;55.54;102408.63;5076151;28;20618;-68
2021/03/06 00:33:50;;;;;;;2.90;1.40;;;;;;;-1.28;57.06;102406.81;5076331;28;20174;-68
2021/03/06 00:36:15;;;;;;;3.47;1.70;;;;;;;-1.32;57.51;102411.09;5075831;28;20575;-68
2021/03/06 00:38:40;;;;;;;1.90;1.40;;;;;;;-1.36;58.02;102409.28;5075968;28;20175;-68
2021/03/06 00:41:05;;;;;;;4.03;1.47;;;;;;;-1.38;57.94;102410.09;5075995;28;20239;-68
2021/03/06 00:43:31;;;;;;;2.83;1.50;;;;;;;-1.41;57.87;102397.81;5074930;28;20171;-68
2021/03/06 00:45:56;;;;;;;2.37;1.63;;;;;;;-1.38;57.36;102399.63;5075505;28;20175;-68
2021/03/06 00:48:21;;;;;;;2.93;1.70;;;;;;;-1.36;57.19;102400.53;5075908;28;20185;-69
2021/03/06 00:50:47;;;;;;;1.87;1.33;;;;;;;-1.34;56.39;102391.84;5075451;28;20213;-69
2021/03/06 00:53:12;;;;;;;2.40;1.60;;;;;;;-1.34;56.78;102396.19;5074331;28;20256;-69
2021/03/06 00:55:38;;;;;;;3.80;1.83;;;;;;;-1.32;56.61;102390.16;5074158;28;20600;-69
2021/03/06 00:58:03;;;;;;;3.83;1.50;;;;;;;-1.32;57.24;102384.91;5075476;28;20221;-69
2021/03/06 01:00:28;;;;;;;1.83;1.40;;;;;;;-1.36;57.21;102388.31;5074445;28;20293;-68
2021/03/06 01:02:54;;;;;;;4.47;1.60;;;;;;;-1.40;57.88;102388.22;5075687;28;20202;-67
2021/03/06 01:05:19;;;;;;;2.33;1.47;;;;;;;-1.41;58.57;102378.59;5075502;28;20181;-67
2021/03/06 01:07:44;;;;;;;3.43;1.73;;;;;;;-1.44;59.79;102381.16;5076844;28;20214;-67
2021/03/06 01:10:13;;;;;;;3.40;1.60;;;;;;;-1.48;58.49;102376.72;5076379;28;20175;-67
2021/03/06 01:12:38;;;;;;;4.43;1.53;;;;;;;-1.47;58.75;102368.88;5074652;28;20186;-67
2021/03/06 01:15:05;;;;;;;5.60;2.10;;;;;;;-1.48;60.13;102372.34;5075468;28;20239;-68
2021/03/06 01:17:30;;;;;;;1.90;1.30;;;;;;;-1.55;59.71;102366.94;5075311;28;20669;-68
2021/03/06 01:19:56;;;;;;;2.87;1.67;;;;;;;-1.57;59.38;102365.16;5075489;28;20175;-68
2021/03/06 01:22:21;;;;;;;3.47;1.50;;;;;;;-1.60;60.66;102362.50;5074921;28;20715;-67
2021/03/06 01:24:46;;;;;;;2.83;1.97;;;;;;;-1.67;60.22;102362.34;5079583;28;20179;-68
2021/03/06 01:27:12;;;;;;;2.87;1.80;;;;;;;-1.73;61.59;102357.84;5098152;28;20167;-68
2021/03/06 01:29:37;;;;;;;3.93;2.30;;;;;;;-1.75;61.10;102356.06;5091769;28;20171;-67
2021/03/06 01:32:03;;;;;;;3.90;1.70;;;;;;;-1.76;59.97;102357.78;5075389;28;20210;-67
2021/03/06 01:34:29;;;;;;;3.23;1.73;;;;;;;-1.79;60.21;102349.88;5073724;28;20171;-69
2021/03/06 01:36:55;;;;;;;2.73;1.50;;;;;;;-1.84;60.28;102354.13;5074325;28;20206;-68
2021/03/06 01:39:21;;;;;;;3.03;1.87;;;;;;;-1.89;61.24;102356.63;5075361;28;20180;-68
2021/03/06 01:41:46;;;;;;;3.40;1.50;;;;;;;-1.86;61.65;102353.19;5074787;28;20238;-69
2021/03/06 01:44:11;;;;;;;3.47;1.67;;;;;;;-1.88;62.28;102347.91;5056524;28;20182;-67
2021/03/06 01:46:37;;;;;;;3.90;1.60;;;;;;;-1.88;62.51;102339.16;5073721;28;20663;-69
2021/03/06 01:49:02;;;;;;;1.83;1.40;;;;;;;-1.90;62.47;102339.13;5075067;28;20221;-67
2021/03/06 01:51:27;;;;;;;4.57;2.20;;;;;;;-1.91;62.73;102333.88;5073062;28;20202;-68
2021/03/06 01:53:53;;;;;;;4.93;1.90;;;;;;;-1.93;62.50;102338.19;5073498;28;20236;-67
2021/03/06 01:56:18;;;;;;;2.83;1.77;;;;;;;-1.93;62.75;102340.81;5073206;28;20199;-68
2021/03/06 01:58:43;;;;;;;3.33;1.80;;;;;;;-1.94;63.09;102339.03;5073612;28;20181;-68
2021/03/06 02:01:09;;;;;;;2.97;1.60;;;;;;;-1.97;62.99;102344.22;5074239;28;20202;-69
2021/03/06 02:03:35;;;;;;;2.83;1.80;;;;;;;-2.05;64.19;102340.53;5073367;28;20171;-69
2021/03/06 02:06:00;;;;;;;3.90;2.10;;;;;;;-2.08;64.27;102337.88;5074379;28;20590;-69
2021/03/06 02:08:25;;;;;;;3.23;2.40;;;;;;;-2.06;64.03;102338.78;5074298;28;20224;-69
2021/03/06 02:10:51;;;;;;;2.57;1.90;;;;;;;-2.06;63.71;102333.56;5073153;28;20211;-69
2021/03/06 02:13:38;;;;;;;4.83;2.17;;;;;;;-2.08;64.31;102335.25;5055985;28;20193;-69
2021/03/06 02:16:28;;;;;;;2.83;2.07;;;;;;;-2.07;64.15;102339.63;5072837;28;20222;-69
2021/03/06 02:19:06;;;;;;;6.20;2.00;;;;;;;-2.07;64.44;102331.78;5074392;28;20399;-69
2021/03/06 02:21:44;;;;;;;4.77;2.00;;;;;;;-2.06;64.97;102341.41;5074398;28;20432;-68
2021/03/06 02:24:22;;;;;;;3.37;1.87;;;;;;;-2.06;65.03;102341.41;5073283;28;20664;-67
2021/03/06 02:26:53;;;;;;;3.00;1.83;;;;;;;-2.10;65.29;102331.72;5073026;28;20193;-68
2021/03/06 02:29:37;;;;;;;4.10;1.97;;;;;;;-2.09;65.06;102336.97;5072691;28;20391;-68
2021/03/06 02:32:09;;;;;;;5.53;2.20;;;;;;;-2.08;65.53;102336.13;5073312;28;20470;-68
2021/03/06 02:34:34;;;;;;;6.57;2.27;;;;;;;-2.10;65.61;102332.59;5072752;28;20414;-68
2021/03/06 02:37:02;;;;;;;5.97;2.50;;;;;;;-2.11;66.29;102336.06;5072753;28;20194;-68
2021/03/06 02:39:28;;;;;;;5.33;2.10;;;;;;;-2.12;66.20;102336.03;5055575;28;20186;-68
2021/03/06 02:41:55;;;;;;;4.47;2.27;;;;;;;-2.12;66.23;102334.31;5072454;28;20988;-68
2021/03/06 02:44:21;;;;;;;4.43;2.10;;;;;;;-2.11;66.68;102329.94;5072657;28;20415;-68
2021/03/06 02:46:47;;;;;;;6.50;2.57;;;;;;;-2.10;67.08;102326.47;5072536;28;20223;-69
2021/03/06 02:49:13;;;;;;;5.13;2.13;;;;;;;-2.14;67.29;102332.50;5075828;28;20200;-68
2021/03/06 02:51:39;;;;;;;6.37;1.93;;;;;;;-2.14;67.57;102332.50;5073484;28;20757;-68
2021/03/06 02:54:05;;;;;;;5.73;2.70;;;;;;;-2.19;68.02;102342.88;5074852;28;20184;-68
2021/03/06 02:56:31;;;;;;;4.20;2.50;;;;;;;-2.19;67.91;102332.41;5074597;28;20508;-68
2021/03/06 02:59:14;;;;;;;3.10;2.30;;;;;;;-2.18;68.27;102330.66;5073662;28;20415;-69
2021/03/06 03:02:04;;;;;;;3.37;2.20;;;;;;;-2.19;68.45;102337.63;5073526;28;20252;-68
2021/03/06 03:05:06;;;;;;;4.93;2.60;;;;;;;-2.29;68.96;102339.13;5072245;28;20777;-69
2021/03/06 03:08:05;;;;;;;4.23;2.30;;;;;;;-2.35;68.98;102332.88;5072455;28;20165;-69
2021/03/06 03:10:34;;;;;;;4.63;3.07;;;;;;;-2.39;69.37;102334.53;5055232;28;20423;-69
2021/03/06 03:13:17;;;;;;;8.77;4.43;;;;;;;-2.35;69.72;102338.09;5072177;28;20415;-69
2021/03/06 03:15:46;;;;;;;9.23;4.93;;;;;;;-2.42;69.56;102341.41;5073094;28;20496;-69
2021/03/06 03:18:18;;;;;;;9.37;4.80;;;;;;;-2.47;70.00;102343.94;5071878;28;20585;-68
2021/03/06 03:20:49;;;;;;;6.50;3.80;;;;;;;-2.45;70.18;102333.50;5055055;28;20807;-68
2021/03/06 03:23:16;;;;;;;6.33;3.80;;;;;;;-2.48;70.38;102342.16;5071815;28;20425;-68
2021/03/06 03:25:43;;;;;;;13.33;4.70;;;;;;;-2.50;70.51;102335.13;5055136;28;20431;-68
2021/03/06 03:28:09;;;;;;;9.80;3.77;;;;;;;-2.47;70.93;102337.81;5071838;28;20412;-68
2021/03/06 03:30:35;;;;;;;8.37;3.37;;;;;;;-2.43;70.77;102332.69;5072012;28;20544;-68
2021/03/06 03:33:02;;;;;;;6.10;3.10;;;;;;;-2.44;70.77;102338.78;5072945;28;20491;-68
2021/03/06 03:35:27;;;;;;;8.63;2.80;;;;;;;-2.43;70.96;102342.28;5071631;28;20180;-68
2021/03/06 03:37:54;;;;;;;8.50;4.37;;;;;;;-2.50;70.82;102335.13;5072211;28;20404;-68
2021/03/06 03:40:20;;;;;;;7.83;2.77;;;;;;;-2.49;71.09;102334.28;5072840;28;20376;-68
2021/03/06 03:42:46;;;;;;;5.63;2.53;;;;;;;-2.55;71.42;102329.78;5071680;28;20275;-68
2021/03/06 03:45:13;;;;;;;6.77;3.00;;;;;;;-2.51;71.69;102334.25;5071608;28;20187;-69
2021/03/06 03:47:40;;;;;;;7.83;2.97;;;;;;;-2.55;71.70;102333.28;5071584;28;20411;-68
2021/03/06 03:50:16;;;;;;;6.37;2.77;;;;;;;-2.58;72.01;102332.34;5071587;28;20409;-69
2021/03/06 03:52:44;;;;;;;6.07;3.03;;;;;;;-2.54;72.25;102336.78;5073149;28;20468;-67
2021/03/06 03:55:10;;;;;;;5.37;2.80;;;;;;;-2.53;72.17;102334.22;5071419;28;20422;-68
2021/03/06 03:57:36;;;;;;;6.57;2.80;;;;;;;-2.51;72.61;102336.84;5072743;28;20460;-68
2021/03/06 04:00:09;;;;;;;5.40;2.67;;;;;;;-2.43;72.49;102340.53;5074324;28;20425;-68
2021/03/06 04:02:35;;;;;;;9.47;3.10;;;;;;;-2.42;72.40;102342.31;5075071;28;20202;-68
2021/03/06 04:05:01;;;;;;;4.27;3.03;;;;;;;-2.40;72.78;102331.88;5076675;28;20913;-69
2021/03/06 04:07:27;;;;;;;6.97;2.87;;;;;;;-2.44;72.84;102336.16;5075159;28;20719;-68
2021/03/06 04:09:52;;;;;;;7.53;2.87;;;;;;;-2.48;72.87;102339.53;5076552;28;20422;-68
2021/03/06 04:12:18;;;;;;;5.13;2.47;;;;;;;-2.52;73.13;102337.72;5075221;28;20291;-68
2021/03/06 04:14:43;;;;;;;6.13;3.23;;;;;;;-2.53;73.51;102338.56;5075359;28;20175;-68
2021/03/06 04:17:09;;;;;;;4.03;2.53;;;;;;;-2.57;73.61;102332.38;5075891;28;20656;-67
2021/03/06 04:19:34;;;;;;;6.43;3.20;;;;;;;-2.61;73.79;102329.63;5077653;28;20213;-68
2021/03/06 04:21:59;;;;;;;5.87;3.00;;;;;;;-2.59;73.87;102327.94;5088527;28;20194;-67
2021/03/06 04:24:25;;;;;;;4.70;2.27;;;;;;;-2.60;74.18;102324.44;5099703;28;20165;-68
2021/03/06 04:26:50;;;;;;;5.90;2.90;;;;;;;-2.62;74.48;102333.97;5082319;28;20648;-68
2021/03/06 04:29:19;;;;;;;8.37;2.80;;;;;;;-2.59;74.48;102341.91;5074558;28;20185;-67
2021/03/06 04:31:45;;;;;;;5.77;3.13;;;;;;;-2.58;74.97;102340.19;5076098;28;20197;-68
2021/03/06 04:34:11;;;;;;;4.67;2.03;;;;;;;-2.55;74.67;102343.75;5075999;28;20422;-68
2021/03/06 04:36:36;;;;;;;9.23;2.80;;;;;;;-2.61;74.87;102342.69;5074496;28;20193;-68
2021/03/06 04:39:01;;;;;;;9.07;3.00;;;;;;;-2.64;75.21;102351.34;5076298;28;20263;-68
2021/03/06 04:41:27;;;;;;;6.10;2.73;;;;;;;-2.65;75.21;102346.06;5074418;28;20221;-68
2021/03/06 04:43:52;;;;;;;5.87;2.80;;;;;;;-2.71;75.45;102345.91;5075860;28;20227;-68
2021/03/06 04:46:17;;;;;;;6.77;3.63;;;;;;;-2.68;75.76;102353.84;5075680;28;20173;-67
2021/03/06 04:48:42;;;;;;;7.47;2.90;;;;;;;-2.71;75.28;102345.91;5075379;28;20638;-67
2021/03/06 04:51:08;;;;;;;10.20;3.87;;;;;;;-2.71;75.41;102343.31;5075120;28;20200;-67
2021/03/06 04:53:33;;;;;;;8.97;3.13;;;;;;;-2.76;75.85;102347.53;5074438;28;20221;-67
2021/03/06 04:55:58;;;;;;;4.40;2.50;;;;;;;-2.74;75.89;102353.69;5074643;28;20225;-67
2021/03/06 04:58:24;;;;;;;8.30;3.20;;;;;;;-2.84;76.28;102353.47;5074345;28;20176;-67
2021/03/06 05:00:49;;;;;;;6.40;3.20;;;;;;;-2.80;76.31;102345.69;5074098;28;20195;-67
2021/03/06 05:03:14;;;;;;;5.30;2.60;;;;;;;-2.81;76.76;102346.53;5074123;28;20250;-67
2021/03/06 05:05:39;;;;;;;6.30;3.13;;;;;;;-2.80;76.64;102350.91;5075534;28;20671;-67
2021/03/06 05:08:05;;;;;;;5.47;2.80;;;;;;;-2.85;76.84;102350.81;5075600;28;20174;-69
2021/03/06 05:10:30;;;;;;;7.37;2.70;;;;;;;-2.84;76.85;102353.47;5075074;28;20206;-69
2021/03/06 05:12:55;;;;;;;6.30;3.33;;;;;;;-2.88;76.87;102349.00;5075265;28;20182;-68
2021/03/06 05:15:21;;;;;;;6.97;3.47;;;;;;;-2.88;77.05;102350.72;5075090;28;20179;-68
2021/03/06 05:17:46;;;;;;;7.37;2.90;;;;;;;-2.93;77.32;102350.63;5075887;28;20175;-68
2021/03/06 05:20:12;;;;;;;6.70;3.23;;;;;;;-2.93;77.67;102350.63;5073646;28;20179;-68
2021/03/06 05:22:37;;;;;;;10.17;2.97;;;;;;;-2.98;77.94;102348.69;5074889;28;20570;-69
2021/03/06 05:25:03;;;;;;;4.67;2.73;;;;;;;-2.95;78.07;102347.06;5073606;28;20227;-68
2021/03/06 05:27:28;;;;;;;4.53;2.80;;;;;;;-2.90;78.12;102342.84;5073519;28;20238;-68
2021/03/06 05:29:54;;;;;;;6.83;2.90;;;;;;;-2.91;78.12;102335.84;5075140;28;20257;-69
2021/03/06 05:32:19;;;;;;;7.93;2.77;;;;;;;-2.88;78.30;102345.50;5074841;28;20201;-69
2021/03/06 05:34:44;;;;;;;9.13;2.80;;;;;;;-2.88;78.07;102332.44;5074877;28;20186;-68
2021/03/06 05:37:10;;;;;;;3.43;2.70;;;;;;;-2.92;78.42;102330.59;5074930;28;20199;-68
2021/03/06 05:39:35;;;;;;;6.23;3.33;;;;;;;-2.93;78.74;102324.50;5074828;28;20201;-69
2021/03/06 05:42:00;;;;;;;8.47;3.10;;;;;;;-2.87;78.63;102329.88;5074825;28;20672;-68
2021/03/06 05:44:26;;;;;;;8.87;3.50;;;;;;;-2.92;78.81;102327.97;5075109;28;20175;-68
2021/03/06 05:46:52;;;;;;;10.53;3.27;;;;;;;-2.89;78.73;102331.56;5073646;28;20169;-68
2021/03/06 05:49:17;;;;;;;5.70;3.07;;;;;;;-2.89;78.92;102331.56;5057422;28;20252;-68
2021/03/06 05:51:42;;;;;;;8.10;3.33;;;;;;;-2.89;78.98;102325.44;5086293;22;20317;-67
2021/03/06 05:54:10;;;;;;;6.43;3.23;;;;;;;-2.86;78.96;102322.91;5054466;28;20191;-69
2021/03/06 05:56:38;;;;;;;6.37;3.07;;;;;;;-2.84;79.58;102316.88;5053101;28;20200;-69
2021/03/06 05:59:04;;;;;;;8.67;2.70;;;;;;;-2.87;79.51;102323.75;5053508;28;20780;-67
2021/03/06 06:01:31;;;;;;;5.60;3.40;;;;;;;-2.84;79.49;102316.88;5053010;28;20496;-67
2021/03/06 06:04:00;;;;;;;8.80;2.83;;;;;;;-2.75;79.21;102328.41;5036256;28;20385;-68
2021/03/06 06:06:26;;;;;;;9.87;3.37;;;;;;;-2.76;79.26;102324.91;5052957;28;20442;-68
2021/03/06 06:08:52;;;;;;;14.57;3.17;;;;;;;-2.66;78.98;102328.63;5052901;28;20870;-68
2021/03/06 06:11:17;;;;;;;8.17;2.80;;;;;;;-2.63;79.26;102323.47;5052946;28;20230;-68
2021/03/06 06:13:42;;;;;;;6.50;2.70;;;;;;;-2.60;78.65;102323.56;5053927;28;20194;-67
2021/03/06 06:16:07;;;;;;;6.83;2.93;;;;;;;-2.60;78.65;102334.91;5052818;28;20210;-67
2021/03/06 06:18:33;;;;;;;7.53;3.30;;;;;;;-2.63;78.64;102324.34;5052956;28;20196;-67
2021/03/06 06:20:58;;;;;;;5.97;3.57;;;;;;;-2.59;78.70;102323.59;5035868;28;20175;-67
2021/03/06 06:23:23;;;;;;;7.87;3.37;;;;;;;-2.57;78.89;102336.72;5052896;28;20176;-67
2021/03/06 06:25:49;;;;;;;8.17;3.23;;;;;;;-2.54;78.64;102324.59;5053917;28;20532;-68
2021/03/06 06:28:14;;;;;;;7.77;2.83;;;;;;;-2.53;78.27;102333.31;5053152;28;20227;-68
2021/03/06 06:30:39;;;;;;;9.67;3.37;;;;;;;-2.52;78.60;102335.09;5052607;28;20174;-67
2021/03/06 06:33:05;;;;;;;8.03;3.20;;;;;;;-2.48;78.59;102330.81;5035650;28;20202;-68
2021/03/06 06:35:39;;;;;;;6.47;3.20;;;;;;;-2.48;78.28;102331.69;5053576;28;20536;-68
2021/03/06 06:38:06;;;;;;;8.53;2.90;;;;;;;-2.43;78.11;102342.28;5035602;28;20202;-68
2021/03/06 06:40:35;;;;;;;7.97;3.07;;;;;;;-2.46;78.62;102327.41;5052223;28;21039;-68
2021/03/06 06:43:00;;;;;;;7.10;3.33;;;;;;;-2.42;78.43;102334.47;5052072;28;20468;-68
2021/03/06 06:45:36;;;;;;;4.90;3.17;;;;;;;-2.37;78.31;102337.19;5052355;28;20425;-68
2021/03/06 06:48:10;;;;;;;6.07;3.53;;;;;;;-2.34;77.99;102343.38;5052284;28;20204;-68
2021/03/06 06:50:36;;;;;;;9.70;3.37;;;;;;;-2.25;78.11;102338.34;5052426;28;20404;-68
2021/03/06 06:53:01;;;;;;;7.23;3.17;;;;;;;-2.21;77.74;102328.88;5051995;28;20862;-68
2021/03/06 06:55:42;;;;;;;10.93;3.40;;;;;;;-2.10;77.53;102348.28;5052112;28;20317;-68
2021/03/06 06:58:07;;;;;;;9.13;3.90;;;;;;;-2.16;77.59;102332.47;5035439;28;20221;-67
2021/03/06 07:00:34;;;;;;;8.13;3.37;;;;;;;-2.10;77.53;102331.72;5035420;28;20430;-68
2021/03/06 07:03:02;;;;;;;9.73;3.97;;;;;;;-2.07;77.20;102334.41;5051824;28;20198;-68
2021/03/06 07:05:32;;;;;;;7.63;3.30;;;;;;;-2.02;77.68;102335.38;5051943;28;20415;-68
2021/03/06 07:07:59;;;;;;;10.40;3.00;;;;;;;-2.01;77.46;102342.38;5035390;28;20958;-68
2021/03/06 07:10:32;;;;;;;11.83;3.97;;;;;;;-1.96;77.11;102352.09;5052235;28;20456;-68
2021/03/06 07:13:01;;;;;;;8.30;3.70;;;;;;;-1.85;76.73;102356.72;5052949;28;20489;-68
2021/03/06 07:15:27;;;;;;;8.37;3.57;;;;;;;-1.84;77.07;102351.50;5035387;28;20770;-68
2021/03/06 07:17:54;;;;;;;10.67;3.13;;;;;;;-1.81;77.01;102362.03;5035483;28;20424;-69
2021/03/06 07:20:19;;;;;;;8.37;3.63;;;;;;;-1.74;76.93;102357.81;5052210;28;20416;-68
2021/03/06 07:22:45;;;;;;;8.03;3.27;;;;;;;-1.67;76.73;102359.72;5054056;28;20523;-68
2021/03/06 07:25:10;;;;;;;6.57;3.20;;;;;;;-1.60;76.08;102365.09;5053298;28;20236;-69
2021/03/06 07:27:35;;;;;;;7.40;3.33;;;;;;;-1.59;76.54;102358.13;5035347;28;20776;-69
2021/03/06 07:30:01;;;;;;;6.33;3.10;;;;;;;-1.60;76.89;102365.09;5052132;28;20525;-69
2021/03/06 07:32:30;;;;;;;4.83;3.20;;;;;;;-1.48;76.47;102358.38;5035078;28;20252;-68
2021/03/06 07:35:01;;;;;;;5.47;3.43;;;;;;;-1.34;75.54;102356.91;5038026;28;20587;-68
2021/03/06 07:37:26;;;;;;;6.73;3.50;;;;;;;-1.24;75.30;102363.22;5039959;28;20487;-69
2021/03/06 07:39:53;;;;;;;14.77;4.00;;;;;;;-1.13;75.39;102366.91;5056547;28;20186;-68
2021/03/06 07:42:28;;;;;;;6.50;3.13;;;;;;;-1.06;75.10;102367.09;5055796;28;20195;-68
2021/03/06 07:44:55;;;;;;;4.57;3.23;;;;;;;-0.95;74.89;102360.28;5055603;28;20392;-67
2021/03/06 07:47:21;;;;;;;9.70;3.30;;;;;;;-0.93;74.43;102355.09;5055492;28;20504;-69
2021/03/06 07:49:48;;;;;;;13.37;3.43;;;;;;;-0.85;74.67;102365.69;5038879;28;20412;-67
2021/03/06 07:52:14;;;;;;;9.03;3.20;;;;;;;-0.71;74.18;102361.59;5038608;28;21075;-69
2021/03/06 07:54:39;;;;;;;5.00;3.00;;;;;;;-0.53;73.81;102359.28;5055463;28;20246;-69
2021/03/06 07:57:05;;;;;;;5.10;2.67;;;;;;;-0.24;72.89;102357.13;5055424;28;20276;-69
2021/03/06 07:59:53;;;;;;;11.57;3.50;;;;;;;0.08;71.70;102349.75;5055452;28;20219;-69
2021/03/06 08:02:38;;;;;;;6.60;2.83;;;;;;;0.39;70.63;102373.81;5055627;28;20201;-68
2021/03/06 08:05:06;;;;;;;5.40;3.10;;;;;;;0.56;69.91;102370.53;5055848;28;20189;-67
2021/03/06 08:07:45;;;;;;;6.07;2.60;;;;;;;0.85;68.95;102368.25;5055497;28;20199;-68
2021/03/06 08:10:12;;;;;;;11.90;3.20;;;;;;;1.02;68.53;102359.66;5038826;28;20604;-68
2021/03/06 08:12:37;;;;;;;5.87;2.63;;;;;;;1.13;68.00;102364.19;5055093;28;20222;-68
2021/03/06 08:15:29;;;;;;;7.50;2.90;;;;;;;1.19;67.19;102358.97;5038804;28;20206;-68
2021/03/06 08:17:59;;;;;;;4.90;2.63;;;;;;;1.21;67.26;102351.09;5039073;28;20214;-69
2021/03/06 08:20:30;;;;;;;9.63;3.40;;;;;;;1.21;67.66;102359.00;5055183;28;20190;-68
2021/03/06 08:23:20;;;;;;;7.50;2.83;;;;;;;1.32;67.57;102366.97;5055270;28;20200;-68
2021/03/06 08:26:09;;;;;;;7.57;2.30;;;;;;;1.33;67.58;102366.13;5055645;28;20171;-68
2021/03/06 08:28:34;;;;;;;3.57;2.30;;;;;;;1.32;67.56;102349.44;5056112;28;20644;-69
2021/03/06 08:31:38;;;;;;;5.37;2.63;;;;;;;1.50;67.41;102356.63;5055062;28;20499;-69
2021/03/06 08:34:25;;;;;;;11.17;4.00;;;;;;;1.53;67.40;102360.16;5055050;28;20152;-68
2021/03/06 08:36:50;;;;;;;6.73;3.70;;;;;;;1.58;67.71;102348.81;5056020;28;20192;-68
2021/03/06 08:39:16;;;;;;;10.90;4.57;;;;;;;1.60;67.68;102347.06;5054833;28;20179;-68
2021/03/06 08:41:41;;;;;;;8.67;3.37;;;;;;;1.58;68.16;102356.69;5055059;28;20198;-68
2021/03/06 08:44:06;;;;;;;11.50;4.10;;;;;;;1.46;68.89;102345.16;5038227;28;20176;-68
2021/03/06 08:46:32;;;;;;;10.03;2.93;;;;;;;1.46;68.68;102342.53;5054815;28;20540;-68
2021/03/06 08:48:57;;;;;;;9.43;3.90;;;;;;;1.58;68.64;102340.91;5054658;28;20255;-68
2021/03/06 08:51:23;;;;;;;5.70;3.17;;;;;;;1.69;68.40;102345.38;5054430;28;20207;-68
2021/03/06 08:53:57;;;;;;;5.93;3.10;;;;;;;1.75;68.28;102350.69;5055951;28;20175;-68
2021/03/06 08:56:22;;;;;;;7.07;3.10;;;;;;;1.64;68.78;102351.47;5055376;28;20200;-68
2021/03/06 08:58:48;;;;;;;9.90;2.80;;;;;;;1.61;68.80;102362.88;5038467;28;20179;-68
2021/03/06 09:01:13;;;;;;;8.47;3.27;;;;;;;1.63;69.02;102354.97;5054677;28;20598;-68
2021/03/06 09:03:38;;;;;;;7.87;3.17;;;;;;;1.78;68.66;102357.72;5054254;28;20175;-68
2021/03/06 09:06:04;;;;;;;5.37;3.63;;;;;;;1.92;68.44;102353.44;5055564;28;20168;-68
2021/03/06 09:08:29;;;;;;;7.40;3.47;;;;;;;1.99;67.94;102351.72;5054282;28;20208;-68
2021/03/06 09:10:59;;;;;;;11.30;2.93;;;;;;;2.04;67.89;102348.25;5054138;28;20173;-67
2021/03/06 09:13:29;;;;;;;14.93;3.93;;;;;;;1.93;67.80;102341.16;5054364;28;20172;-67
2021/03/06 09:15:58;;;;;;;10.37;3.30;;;;;;;1.91;68.50;102356.06;5037176;28;20234;-69
2021/03/06 09:18:28;;;;;;;9.37;3.20;;;;;;;1.88;68.35;102344.66;5037487;28;20197;-68
2021/03/06 09:21:01;;;;;;;7.80;3.80;;;;;;;1.96;68.07;102349.09;5054128;28;20179;-67
2021/03/06 09:23:29;;;;;;;7.10;3.47;;;;;;;1.90;68.40;102355.19;5054858;28;20536;-67
2021/03/06 09:25:56;;;;;;;8.47;4.50;;;;;;;1.86;69.03;102356.03;5053955;28;20177;-68
2021/03/06 09:28:31;;;;;;;7.83;2.90;;;;;;;1.94;68.71;102366.63;5054012;28;20222;-68
2021/03/06 09:30:58;;;;;;;10.90;3.40;;;;;;;2.18;68.53;102370.28;5055611;28;20152;-69
2021/03/06 09:33:33;;;;;;;10.80;3.07;;;;;;;2.34;67.69;102373.03;5055249;28;20653;-68
2021/03/06 09:36:07;;;;;;;9.00;3.40;;;;;;;2.37;67.56;102359.84;5055132;28;20185;-69
2021/03/06 09:38:34;;;;;;;6.97;3.40;;;;;;;2.18;68.00;102366.75;5055051;28;20176;-68
2021/03/06 09:41:00;;;;;;;7.00;3.63;;;;;;;2.02;69.34;102373.69;5055990;28;20176;-68
2021/03/06 09:43:26;;;;;;;6.50;3.10;;;;;;;1.72;69.69;102360.31;5054180;28;20180;-68
2021/03/06 09:45:52;;;;;;;6.67;3.53;;;;;;;1.82;69.89;102355.09;5053554;28;20168;-69
2021/03/06 09:48:17;;;;;;;9.40;3.57;;;;;;;1.87;70.04;102361.31;5053554;28;20587;-69
2021/03/06 09:50:44;;;;;;;9.00;3.33;;;;;;;1.97;69.57;102361.38;5053327;28;20250;-69
2021/03/06 09:53:15;;;;;;;8.50;4.07;;;;;;;2.02;69.57;102367.56;5053613;28;20338;-68
2021/03/06 09:55:40;;;;;;;9.13;3.90;;;;;;;1.98;69.73;102364.03;5053497;28;20180;-68
2021/03/06 09:58:23;;;;;;;7.93;3.67;;;;;;;1.97;69.36;102361.38;5036528;28;20267;-68
2021/03/06 10:00:49;;;;;;;10.13;3.87;;;;;;;1.91;70.06;102362.22;5053780;28;20172;-69
2021/03/06 10:03:34;;;;;;;7.43;3.40;;;;;;;1.86;69.86;102367.47;5053798;28;20226;-68
2021/03/06 10:06:01;;;;;;;7.70;3.97;;;;;;;1.77;69.93;102374.38;5053245;28;20171;-69
2021/03/06 10:08:28;;;;;;;10.00;3.30;;;;;;;1.67;70.97;102373.44;5053131;28;20633;-69
2021/03/06 10:10:54;;;;;;;6.50;4.03;;;;;;;1.66;70.76;102389.22;5052860;28;20181;-68
2021/03/06 10:13:20;;;;;;;10.00;3.60;;;;;;;1.59;71.10;102380.38;5052884;28;20176;-68
2021/03/06 10:15:45;;;;;;;9.30;4.20;;;;;;;1.48;72.05;102380.28;5053254;28;20642;-68
2021/03/06 10:18:11;;;;;;;6.00;3.17;;;;;;;1.40;72.45;102378.44;5037038;28;20177;-69
2021/03/06 10:20:37;;;;;;;12.83;4.23;;;;;;;1.32;72.77;102385.41;5053426;28;20173;-68
2021/03/06 10:23:02;;;;;;;9.17;4.43;;;;;;;1.29;73.49;102396.78;5054542;28;20203;-68
2021/03/06 10:25:28;;;;;;;8.43;4.73;;;;;;;1.18;74.34;102393.16;5036930;28;20184;-68
2021/03/06 10:27:54;;;;;;;5.17;3.80;;;;;;;1.07;74.71;102389.50;5053746;28;20628;-69
2021/03/06 10:30:21;;;;;;;10.10;4.07;;;;;;;1.20;73.91;102380.91;5054587;28;20173;-70
2021/03/06 10:32:52;;;;;;;4.00;3.40;;;;;;;1.35;73.94;102377.53;5054093;28;20210;-68
2021/03/06 10:35:38;;;;;;;6.97;3.73;;;;;;;1.69;72.86;102368.19;5054076;28;20164;-68
2021/03/06 10:38:06;;;;;;;8.00;3.80;;;;;;;1.88;72.08;102370.09;5054136;28;20181;-68
2021/03/06 10:40:52;;;;;;;9.10;4.10;;;;;;;2.07;71.31;102369.34;5052802;28;20173;-68
2021/03/06 10:43:35;;;;;;;7.50;3.53;;;;;;;2.23;70.05;102359.78;5036025;28;20177;-69
2021/03/06 10:46:14;;;;;;;6.63;3.67;;;;;;;2.40;69.38;102360.75;5052622;28;20163;-68
2021/03/06 10:48:42;;;;;;;7.63;3.60;;;;;;;2.46;68.85;102365.16;5053765;28;20154;-70
2021/03/06 10:51:08;;;;;;;5.93;3.43;;;;;;;2.50;68.74;102348.50;5035628;28;20293;-69
2021/03/06 10:53:34;;;;;;;6.87;2.70;;;;;;;2.71;67.95;102355.63;5036454;28;20192;-67
2021/03/06 10:56:01;;;;;;;9.60;3.50;;;;;;;2.80;67.51;102353.88;5052512;28;20196;-68
2021/03/06 10:58:46;;;;;;;6.73;2.77;;;;;;;2.97;66.85;102345.13;5053404;28;20284;-69
2021/03/06 11:01:17;;;;;;;8.40;2.80;;;;;;;3.00;66.83;102361.00;5035313;28;20568;-69
2021/03/06 11:03:48;;;;;;;9.63;3.27;;;;;;;3.09;65.65;102350.44;5052034;28;20171;-69
2021/03/06 11:06:14;;;;;;;4.70;3.30;;;;;;;3.00;66.57;102356.59;5035212;28;20185;-69
2021/03/06 11:08:40;;;;;;;9.00;3.43;;;;;;;3.12;66.57;102345.19;5051610;28;20183;-68
2021/03/06 11:11:07;;;;;;;6.00;3.13;;;;;;;3.16;66.10;102336.38;5053343;28;20217;-69
2021/03/06 11:13:51;;;;;;;5.87;3.30;;;;;;;3.14;66.48;102328.47;5052213;28;20590;-69
2021/03/06 11:16:16;;;;;;;6.40;3.17;;;;;;;3.22;66.32;102331.09;5052632;28;20193;-69
2021/03/06 11:18:43;;;;;;;5.20;3.37;;;;;;;3.36;65.45;102337.31;5052025;28;20288;-69
2021/03/06 11:21:11;;;;;;;8.00;3.00;;;;;;;3.44;64.66;102329.38;5053204;28;20293;-69
2021/03/06 11:23:37;;;;;;;11.03;5.87;;;;;;;3.26;65.58;102327.59;5051728;28;20208;-68
2021/03/06 11:26:03;;;;;;;19.67;7.43;;;;;;;3.13;66.30;102337.25;5051739;28;20734;-69
2021/03/06 11:28:28;;;;;;;6.40;3.20;;;;;;;3.11;66.44;102324.94;5053242;28;20209;-69
2021/03/06 11:30:53;;;;;;;6.97;3.43;;;;;;;3.14;66.59;102320.56;5052370;28;20270;-69
2021/03/06 11:33:19;;;;;;;6.90;3.10;;;;;;;3.17;65.74;102322.31;5051845;28;20178;-69